»·PEaware :: N210AR KBFL-KCMA

N210AR :: KBFL-KCMA

FLIGHT INFORMATION

Flight Status: Arrived
Operator: Privately registered:
United States
More flights under this callsign
Pilot: Max S. (16657)
Aircraft: CESSNA 172 SKYHAWK
(C172)
More flights by this aircraft type
Origin: KBFL Meadows
United States
Destination: KCMA Camarillo
United States
More flights between these airports :: More routes between these airports
Route: FIM
File this flight plan on PilotEdge
Remarks: ALPHABET B-C
Altitude:
(Current/Filed)
8,500ft
Speed:
(Current/Filed)
110kts
Departed: 09-Nov-18 08:49 AM
Arrived: 09-Nov-18 09:37 AM
Distance/Time
Traveled:
73nm/0:47
Distance/Time
To Go:
Arrived

Flight Plot

Page will automatically refresh every two minutes.

Flight plan parsing failed; only flown route is shown


Map Options




Map Legend


Flown Route
Filed Route
Departure Airport
Arrival Airport
Navaid (VOR, NDB)
Fix

Horizontal Profiles

Position Reports

Time Latitude Longitude Heading Altitude Ground
Speed
09-Nov-18 08:36 35.424546 -119.042226 349 497ft 0kts
09-Nov-18 08:37 35.424546 -119.042226 349 497ft 0kts
09-Nov-18 08:38 35.424546 -119.042226 349 497ft 0kts
09-Nov-18 08:39 35.424546 -119.042226 349 497ft 0kts
09-Nov-18 08:40 35.424546 -119.042226 349 497ft 0kts
09-Nov-18 08:41 35.424546 -119.042226 349 497ft 0kts
09-Nov-18 08:42 35.424546 -119.042226 349 497ft 0kts
09-Nov-18 08:43 35.424546 -119.042226 349 497ft 0kts
09-Nov-18 08:44 35.424546 -119.042226 349 497ft 0kts
09-Nov-18 08:45 35.425374 -119.043175 319 497ft 8kts
09-Nov-18 08:46 35.425474 -119.044539 303 497ft 3kts
09-Nov-18 08:47 35.425482 -119.044592 260 497ft 0kts
09-Nov-18 08:48 35.425482 -119.044592 260 497ft 0kts
09-Nov-18 08:49 35.425482 -119.044592 260 497ft 0kts
09-Nov-18 08:50 35.425482 -119.044592 260 497ft 0kts
09-Nov-18 08:51 35.425481 -119.044597 258 497ft 1kts
09-Nov-18 08:52 35.432367 -119.054056 310 843ft 68kts
09-Nov-18 08:53 35.440534 -119.070631 209 1654ft 73kts
09-Nov-18 08:54 35.425150 -119.073419 147 2549ft 57kts
09-Nov-18 08:55 35.411782 -119.071344 169 3178ft 60kts
09-Nov-18 08:56 35.392818 -119.068086 165 3602ft 98kts
09-Nov-18 08:57 35.360536 -119.061481 165 4155ft 108kts
09-Nov-18 08:58 35.335713 -119.056526 166 4557ft 104kts
09-Nov-18 08:59 35.310097 -119.051968 165 5036ft 90kts
09-Nov-18 09:00 35.285151 -119.047690 165 5512ft 94kts
09-Nov-18 09:01 35.259293 -119.043424 165 5993ft 94kts
09-Nov-18 09:02 35.233292 -119.039380 166 6478ft 94kts
09-Nov-18 09:03 35.207469 -119.035602 166 6963ft 93kts
09-Nov-18 09:04 35.181746 -119.031970 166 7448ft 92kts
09-Nov-18 09:05 35.156538 -119.028545 166 7931ft 90kts
09-Nov-18 09:06 35.131999 -119.025483 166 8415ft 87kts
09-Nov-18 09:07 35.104377 -119.021739 166 8507ft 114kts
09-Nov-18 09:08 35.071193 -119.016673 167 8506ft 123kts
09-Nov-18 09:09 35.037081 -119.011355 161 8509ft 123kts
09-Nov-18 09:10 35.007785 -118.995112 148 8509ft 112kts
09-Nov-18 09:11 34.979865 -118.979236 148 8513ft 111kts
09-Nov-18 09:12 34.951823 -118.963570 148 8518ft 111kts
09-Nov-18 09:13 34.923839 -118.948143 148 8526ft 111kts
09-Nov-18 09:14 34.896746 -118.933359 148 8534ft 112kts
09-Nov-18 09:15 34.871978 -118.919862 148 8540ft 112kts
09-Nov-18 09:16 34.844086 -118.904744 148 8539ft 113kts
09-Nov-18 09:17 34.816172 -118.889831 148 8629ft 112kts
09-Nov-18 09:18 34.787285 -118.874225 148 8630ft 114kts
09-Nov-18 09:19 34.758106 -118.858334 148 8634ft 115kts
09-Nov-18 09:20 34.728760 -118.842230 148 8641ft 115kts
09-Nov-18 09:21 34.699473 -118.826067 148 8636ft 116kts
09-Nov-18 09:22 34.670508 -118.810306 148 8617ft 117kts
09-Nov-18 09:23 34.638394 -118.801881 179 8583ft 122kts
09-Nov-18 09:24 34.605108 -118.812398 193 8531ft 127kts
09-Nov-18 09:25 34.569320 -118.827534 193 8017ft 139kts
09-Nov-18 09:26 34.532943 -118.843572 193 7505ft 140kts
09-Nov-18 09:27 34.496235 -118.858843 186 6997ft 139kts
09-Nov-18 09:28 34.458713 -118.869380 186 6503ft 137kts
09-Nov-18 09:29 34.421724 -118.879912 186 6053ft 138kts
09-Nov-18 09:30 34.384079 -118.890795 186 5542ft 139kts
09-Nov-18 09:31 34.357175 -118.919550 254 4993ft 147kts
09-Nov-18 09:32 34.334872 -118.959647 221 4502ft 145kts
09-Nov-18 09:33 34.305588 -118.993043 218 4005ft 145kts
09-Nov-18 09:34 34.276021 -119.026041 218 3508ft 145kts
09-Nov-18 09:35 34.244911 -119.056706 209 2050ft 148kts
09-Nov-18 09:36 34.221475 -119.087607 266 977ft 103kts
09-Nov-18 09:37 34.221362 -119.116007 285 926ft 75kts
09-Nov-18 09:38 34.214700 -119.128204 98 678ft 49kts
09-Nov-18 09:39 34.213788 -119.112522 74 384ft 50kts
09-Nov-18 09:40 34.213789 -119.099792 91 76ft 9kts
09-Nov-18 09:41 34.212967 -119.095563 216 76ft 0kts
09-Nov-18 09:42 34.211488 -119.095326 138 76ft 16kts
09-Nov-18 09:43 34.210593 -119.094017 225 76ft 5kts
09-Nov-18 09:44 34.210297 -119.094107 340 76ft 0kts
09-Nov-18 09:45 34.210297 -119.094107 341 76ft 0kts

Navigation Log

Ident Type
Flight plan parsing failed, navigation log unavailable